sensor_id;sensor_type;location;lat;lon;timestamp;pressure;altitude;pressure_sealevel;temperature;humidity
31005;BME280;17676;52.254;4.490;2023-04-02T00:01:37;101274.22;;;7.79;100.00
31005;BME280;17676;52.254;4.490;2023-04-02T00:04:05;101260.75;;;7.79;100.00
31005;BME280;17676;52.254;4.490;2023-04-02T00:06:36;101275.59;;;7.75;100.00
31005;BME280;17676;52.254;4.490;2023-04-02T00:11:38;101280.88;;;7.91;100.00
31005;BME280;17676;52.254;4.490;2023-04-02T00:14:17;101279.88;;;7.92;100.00
31005;BME280;17676;52.254;4.490;2023-04-02T00:16:45;101272.31;;;7.87;100.00
31005;BME280;17676;52.254;4.490;2023-04-02T00:19:19;101290.72;;;7.84;100.00
31005;BME280;17676;52.254;4.490;2023-04-02T00:21:48;101287.16;;;7.61;100.00
31005;BME280;17676;52.254;4.490;2023-04-02T00:24:17;101294.44;;;7.75;100.00
31005;BME280;17676;52.254;4.490;2023-04-02T00:26:51;101300.22;;;7.72;100.00
31005;BME280;17676;52.254;4.490;2023-04-02T00:29:18;101302.88;;;7.80;100.00
31005;BME280;17676;52.254;4.490;2023-04-02T00:31:47;101306.56;;;7.79;100.00
31005;BME280;17676;52.254;4.490;2023-04-02T00:34:21;101311.06;;;7.86;100.00
31005;BME280;17676;52.254;4.490;2023-04-02T00:36:48;101315.66;;;7.78;100.00
31005;BME280;17676;52.254;4.490;2023-04-02T00:39:21;101321.34;;;7.83;100.00
31005;BME280;17676;52.254;4.490;2023-04-02T00:41:51;101327.47;;;7.77;100.00
31005;BME280;17676;52.254;4.490;2023-04-02T00:44:19;101332.56;;;7.72;100.00
31005;BME280;17676;52.254;4.490;2023-04-02T00:46:47;101329.84;;;7.72;100.00
31005;BME280;17676;52.254;4.490;2023-04-02T00:49:30;101337.44;;;7.68;100.00
31005;BME280;17676;52.254;4.490;2023-04-02T00:52:03;101344.28;;;7.79;100.00
31005;BME280;17676;52.254;4.490;2023-04-02T00:54:33;101344.75;;;7.60;100.00
31005;BME280;17676;52.254;4.490;2023-04-02T00:57:02;101339.34;;;7.60;100.00
31005;BME280;17676;52.254;4.490;2023-04-02T00:59:34;101344.78;;;7.52;100.00
31005;BME280;17676;52.254;4.490;2023-04-02T01:05:01;101349.28;;;7.59;100.00
31005;BME280;17676;52.254;4.490;2023-04-02T01:07:40;101364.69;;;7.43;100.00
31005;BME280;17676;52.254;4.490;2023-04-02T01:10:26;101372.81;;;7.35;100.00
31005;BME280;17676;52.254;4.490;2023-04-02T01:13:21;101376.63;;;7.40;100.00
31005;BME280;17676;52.254;4.490;2023-04-02T01:24:18;101389.69;;;7.59;100.00
31005;BME280;17676;52.254;4.490;2023-04-02T01:29:29;101399.25;;;7.62;100.00
31005;BME280;17676;52.254;4.490;2023-04-02T01:32:00;101396.78;;;7.52;100.00
31005;BME280;17676;52.254;4.490;2023-04-02T01:34:30;101405.03;;;7.59;100.00
31005;BME280;17676;52.254;4.490;2023-04-02T01:37:19;101411.78;;;7.55;100.00
31005;BME280;17676;52.254;4.490;2023-04-02T01:40:16;101415.97;;;7.57;100.00
31005;BME280;17676;52.254;4.490;2023-04-02T01:45:45;101423.25;;;7.41;100.00
31005;BME280;17676;52.254;4.490;2023-04-02T01:48:20;101431.47;;;7.47;100.00
31005;BME280;17676;52.254;4.490;2023-04-02T01:50:48;101434.72;;;7.43;100.00
31005;BME280;17676;52.254;4.490;2023-04-02T01:53:16;101434.03;;;7.33;100.00
31005;BME280;17676;52.254;4.490;2023-04-02T01:55:49;101438.06;;;7.37;100.00
31005;BME280;17676;52.254;4.490;2023-04-02T01:58:21;101431.66;;;7.38;100.00
31005;BME280;17676;52.254;4.490;2023-04-02T02:01:04;101441.09;;;7.34;100.00
31005;BME280;17676;52.254;4.490;2023-04-02T02:03:32;101443.28;;;7.38;100.00
31005;BME280;17676;52.254;4.490;2023-04-02T02:06:00;101450.19;;;7.33;100.00
31005;BME280;17676;52.254;4.490;2023-04-02T02:08:36;101461.25;;;7.46;100.00
31005;BME280;17676;52.254;4.490;2023-04-02T02:11:03;101455.72;;;7.39;100.00
31005;BME280;17676;52.254;4.490;2023-04-02T02:13:30;101462.00;;;7.32;100.00
31005;BME280;17676;52.254;4.490;2023-04-02T02:15:59;101456.63;;;7.24;100.00
31005;BME280;17676;52.254;4.490;2023-04-02T02:18:26;101477.47;;;7.22;100.00
31005;BME280;17676;52.254;4.490;2023-04-02T02:20:53;101475.50;;;7.16;100.00
31005;BME280;17676;52.254;4.490;2023-04-02T02:23:21;101483.22;;;7.19;100.00
31005;BME280;17676;52.254;4.490;2023-04-02T02:25:47;101484.03;;;7.19;100.00
31005;BME280;17676;52.254;4.490;2023-04-02T02:30:58;101496.69;;;7.19;100.00
31005;BME280;17676;52.254;4.490;2023-04-02T02:33:29;101490.13;;;7.21;100.00
31005;BME280;17676;52.254;4.490;2023-04-02T02:44:18;101519.56;;;7.23;100.00
31005;BME280;17676;52.254;4.490;2023-04-02T02:47:15;101521.22;;;7.24;100.00
31005;BME280;17676;52.254;4.490;2023-04-02T02:49:46;101527.28;;;7.18;100.00
31005;BME280;17676;52.254;4.490;2023-04-02T02:52:22;101523.75;;;7.25;100.00
31005;BME280;17676;52.254;4.490;2023-04-02T02:54:58;101529.81;;;7.19;100.00
31005;BME280;17676;52.254;4.490;2023-04-02T02:57:29;101529.97;;;7.18;100.00
31005;BME280;17676;52.254;4.490;2023-04-02T02:59:59;101532.00;;;7.08;100.00
31005;BME280;17676;52.254;4.490;2023-04-02T03:02:31;101542.94;;;7.14;100.00
31005;BME280;17676;52.254;4.490;2023-04-02T03:04:59;101548.31;;;7.06;100.00
31005;BME280;17676;52.254;4.490;2023-04-02T03:07:29;101553.53;;;7.16;100.00
31005;BME280;17676;52.254;4.490;2023-04-02T03:10:15;101557.56;;;7.20;100.00
31005;BME280;17676;52.254;4.490;2023-04-02T03:12:56;101574.22;;;7.23;100.00
31005;BME280;17676;52.254;4.490;2023-04-02T03:15:34;101574.38;;;7.14;100.00
31005;BME280;17676;52.254;4.490;2023-04-02T03:18:13;101579.09;;;6.88;100.00
31005;BME280;17676;52.254;4.490;2023-04-02T03:20:47;101574.88;;;6.69;100.00
31005;BME280;17676;52.254;4.490;2023-04-02T03:23:28;101591.81;;;6.70;100.00
31005;BME280;17676;52.254;4.490;2023-04-02T03:29:05;101599.56;;;6.65;100.00
31005;BME280;17676;52.254;4.490;2023-04-02T03:31:43;101601.22;;;6.58;100.00
31005;BME280;17676;52.254;4.490;2023-04-02T03:34:23;101611.31;;;6.56;100.00
31005;BME280;17676;52.254;4.490;2023-04-02T03:36:57;101603.84;;;6.42;100.00
31005;BME280;17676;52.254;4.490;2023-04-02T03:39:56;101608.63;;;6.56;100.00
31005;BME280;17676;52.254;4.490;2023-04-02T03:42:26;101620.38;;;6.55;100.00
31005;BME280;17676;52.254;4.490;2023-04-02T03:45:18;101621.69;;;6.43;100.00
31005;BME280;17676;52.254;4.490;2023-04-02T03:48:12;101637.66;;;6.44;100.00
31005;BME280;17676;52.254;4.490;2023-04-02T03:53:43;101652.22;;;6.34;100.00
31005;BME280;17676;52.254;4.490;2023-04-02T03:56:28;101659.28;;;6.35;100.00
31005;BME280;17676;52.254;4.490;2023-04-02T03:59:21;101678.28;;;6.41;100.00
31005;BME280;17676;52.254;4.490;2023-04-02T04:04:30;101676.69;;;6.23;100.00
31005;BME280;17676;52.254;4.490;2023-04-02T04:06:58;101692.13;;;6.21;100.00
31005;BME280;17676;52.254;4.490;2023-04-02T04:09:29;101689.59;;;6.19;100.00
31005;BME280;17676;52.254;4.490;2023-04-02T04:12:31;101694.13;;;6.19;100.00
31005;BME280;17676;52.254;4.490;2023-04-02T04:20:45;101715.00;;;6.25;100.00
31005;BME280;17676;52.254;4.490;2023-04-02T04:23:21;101716.34;;;6.29;100.00
31005;BME280;17676;52.254;4.490;2023-04-02T04:26:03;101725.75;;;6.25;100.00
31005;BME280;17676;52.254;4.490;2023-04-02T04:31:48;101742.59;;;6.09;100.00
31005;BME280;17676;52.254;4.490;2023-04-02T04:34:31;101746.31;;;6.08;100.00
31005;BME280;17676;52.254;4.490;2023-04-02T04:37:17;101752.28;;;6.02;100.00
31005;BME280;17676;52.254;4.490;2023-04-02T04:39:55;101749.75;;;6.01;100.00
31005;BME280;17676;52.254;4.490;2023-04-02T04:42:28;101755.19;;;6.09;100.00
31005;BME280;17676;52.254;4.490;2023-04-02T04:44:59;101770.06;;;6.21;100.00
31005;BME280;17676;52.254;4.490;2023-04-02T04:47:53;101767.91;;;6.24;100.00
31005;BME280;17676;52.254;4.490;2023-04-02T04:50:30;101775.06;;;6.16;100.00
31005;BME280;17676;52.254;4.490;2023-04-02T04:53:05;101767.31;;;6.13;100.00
31005;BME280;17676;52.254;4.490;2023-04-02T04:55:37;101778.00;;;6.05;100.00
31005;BME280;17676;52.254;4.490;2023-04-02T04:58:32;101779.03;;;5.86;100.00
31005;BME280;17676;52.254;4.490;2023-04-02T05:06:09;101789.25;;;5.83;100.00
31005;BME280;17676;52.254;4.490;2023-04-02T05:08:40;101799.69;;;5.86;100.00
31005;BME280;17676;52.254;4.490;2023-04-02T05:11:12;101806.56;;;5.71;100.00
31005;BME280;17676;52.254;4.490;2023-04-02T05:13:52;101801.88;;;5.55;100.00
31005;BME280;17676;52.254;4.490;2023-04-02T05:16:25;101808.16;;;5.64;100.00
31005;BME280;17676;52.254;4.490;2023-04-02T05:27:23;101847.13;;;5.68;100.00
31005;BME280;17676;52.254;4.490;2023-04-02T05:30:00;101849.53;;;5.71;100.00
31005;BME280;17676;52.254;4.490;2023-04-02T05:32:35;101851.31;;;5.53;100.00
31005;BME280;17676;52.254;4.490;2023-04-02T05:35:02;101860.50;;;5.32;100.00
31005;BME280;17676;52.254;4.490;2023-04-02T05:37:32;101868.16;;;5.27;100.00
31005;BME280;17676;52.254;4.490;2023-04-02T05:40:04;101872.63;;;5.36;100.00
31005;BME280;17676;52.254;4.490;2023-04-02T05:42:39;101874.41;;;5.18;100.00
31005;BME280;17676;52.254;4.490;2023-04-02T05:47:55;101880.38;;;5.12;100.00
31005;BME280;17676;52.254;4.490;2023-04-02T05:50:42;101914.84;;;5.07;100.00
31005;BME280;17676;52.254;4.490;2023-04-02T05:53:26;101906.38;;;5.02;100.00
31005;BME280;17676;52.254;4.490;2023-04-02T05:58:51;101912.59;;;5.12;100.00
31005;BME280;17676;52.254;4.490;2023-04-02T06:06:57;101923.84;;;5.16;100.00
31005;BME280;17676;52.254;4.490;2023-04-02T06:09:34;101931.44;;;5.20;100.00
31005;BME280;17676;52.254;4.490;2023-04-02T06:14:58;101957.19;;;5.13;100.00
31005;BME280;17676;52.254;4.490;2023-04-02T06:17:24;101944.22;;;4.99;100.00
31005;BME280;17676;52.254;4.490;2023-04-02T06:19:55;101964.59;;;4.92;100.00
31005;BME280;17676;52.254;4.490;2023-04-02T06:22:23;101964.47;;;4.84;100.00
31005;BME280;17676;52.254;4.490;2023-04-02T06:24:59;101977.88;;;4.84;100.00
31005;BME280;17676;52.254;4.490;2023-04-02T06:27:29;101973.22;;;4.86;100.00
31005;BME280;17676;52.254;4.490;2023-04-02T06:30:00;101973.22;;;4.86;100.00
31005;BME280;17676;52.254;4.490;2023-04-02T06:32:30;101979.44;;;4.77;100.00
31005;BME280;17676;52.254;4.490;2023-04-02T06:34:56;101980.41;;;4.86;100.00
31005;BME280;17676;52.254;4.490;2023-04-02T06:37:32;101985.59;;;4.97;100.00
31005;BME280;17676;52.254;4.490;2023-04-02T06:40:04;101992.56;;;4.80;100.00
31005;BME280;17676;52.254;4.490;2023-04-02T06:42:36;101996.53;;;4.76;100.00
31005;BME280;17676;52.254;4.490;2023-04-02T06:45:15;101998.22;;;4.68;100.00
31005;BME280;17676;52.254;4.490;2023-04-02T06:47:49;102007.66;;;4.81;100.00
31005;BME280;17676;52.254;4.490;2023-04-02T06:50:22;102008.59;;;4.99;100.00
31005;BME280;17676;52.254;4.490;2023-04-02T06:52:55;102021.94;;;4.72;100.00
31005;BME280;17676;52.254;4.490;2023-04-02T06:55:46;102023.16;;;4.87;100.00
31005;BME280;17676;52.254;4.490;2023-04-02T06:58:15;102022.19;;;4.88;100.00
31005;BME280;17676;52.254;4.490;2023-04-02T07:00:47;102034.88;;;4.86;100.00
31005;BME280;17676;52.254;4.490;2023-04-02T07:03:24;102054.66;;;4.85;100.00
31005;BME280;17676;52.254;4.490;2023-04-02T07:05:50;102044.78;;;4.76;100.00
31005;BME280;17676;52.254;4.490;2023-04-02T07:08:17;102053.38;;;4.70;100.00
31005;BME280;17676;52.254;4.490;2023-04-02T07:10:43;102057.75;;;4.90;100.00
31005;BME280;17676;52.254;4.490;2023-04-02T07:13:19;102062.84;;;4.93;100.00
31005;BME280;17676;52.254;4.490;2023-04-02T07:15:47;102063.09;;;4.71;100.00
31005;BME280;17676;52.254;4.490;2023-04-02T07:18:26;102061.69;;;4.77;100.00
31005;BME280;17676;52.254;4.490;2023-04-02T07:20:53;102065.94;;;4.79;100.00
31005;BME280;17676;52.254;4.490;2023-04-02T07:23:19;102074.94;;;5.16;100.00
31005;BME280;17676;52.254;4.490;2023-04-02T07:25:50;102088.34;;;5.26;100.00
31005;BME280;17676;52.254;4.490;2023-04-02T07:28:22;102085.09;;;5.42;100.00
31005;BME280;17676;52.254;4.490;2023-04-02T07:30:48;102088.47;;;5.43;100.00
31005;BME280;17676;52.254;4.490;2023-04-02T07:33:22;102093.28;;;5.50;100.00
31005;BME280;17676;52.254;4.490;2023-04-02T07:35:50;102099.72;;;5.57;100.00
31005;BME280;17676;52.254;4.490;2023-04-02T07:38:16;102110.75;;;5.63;100.00
31005;BME280;17676;52.254;4.490;2023-04-02T07:40:42;102105.72;;;5.41;100.00
31005;BME280;17676;52.254;4.490;2023-04-02T07:43:13;102109.41;;;5.40;100.00
31005;BME280;17676;52.254;4.490;2023-04-02T07:45:38;102106.84;;;5.38;100.00
31005;BME280;17676;52.254;4.490;2023-04-02T07:48:08;102115.78;;;5.95;100.00
31005;BME280;17676;52.254;4.490;2023-04-02T07:50:35;102118.03;;;6.53;100.00
31005;BME280;17676;52.254;4.490;2023-04-02T07:53:02;102116.63;;;7.54;100.00
31005;BME280;17676;52.254;4.490;2023-04-02T07:55:27;102126.22;;;7.57;100.00
31005;BME280;17676;52.254;4.490;2023-04-02T07:57:56;102133.47;;;8.41;100.00
31005;BME280;17676;52.254;4.490;2023-04-02T08:00:24;102134.28;;;8.00;100.00
31005;BME280;17676;52.254;4.490;2023-04-02T08:02:51;102131.28;;;9.10;100.00
31005;BME280;17676;52.254;4.490;2023-04-02T08:05:19;102137.34;;;9.84;100.00
31005;BME280;17676;52.254;4.490;2023-04-02T08:07:55;102125.84;;;10.83;100.00
31005;BME280;17676;52.254;4.490;2023-04-02T08:10:21;102146.00;;;9.71;100.00
31005;BME280;17676;52.254;4.490;2023-04-02T08:12:47;102126.03;;;9.80;100.00
31005;BME280;17676;52.254;4.490;2023-04-02T08:15:16;102128.25;;;9.85;100.00
31005;BME280;17676;52.254;4.490;2023-04-02T08:17:42;102129.88;;;10.18;100.00
31005;BME280;17676;52.254;4.490;2023-04-02T08:20:17;102135.28;;;10.02;100.00
31005;BME280;17676;52.254;4.490;2023-04-02T08:22:44;102158.84;;;11.32;100.00
31005;BME280;17676;52.254;4.490;2023-04-02T08:25:10;102144.69;;;10.99;100.00
31005;BME280;17676;52.254;4.490;2023-04-02T08:27:36;102167.22;;;10.14;100.00
31005;BME280;17676;52.254;4.490;2023-04-02T08:30:02;102152.38;;;8.90;100.00
31005;BME280;17676;52.254;4.490;2023-04-02T08:32:28;102180.28;;;9.71;100.00
31005;BME280;17676;52.254;4.490;2023-04-02T08:34:54;102176.22;;;9.59;100.00
31005;BME280;17676;52.254;4.490;2023-04-02T08:37:20;102174.22;;;9.29;100.00
31005;BME280;17676;52.254;4.490;2023-04-02T08:39:45;102174.47;;;10.30;100.00
31005;BME280;17676;52.254;4.490;2023-04-02T08:47:28;102178.19;;;11.51;100.00
31005;BME280;17676;52.254;4.490;2023-04-02T08:50:03;102190.44;;;11.25;100.00
31005;BME280;17676;52.254;4.490;2023-04-02T08:52:36;102198.69;;;11.76;100.00
31005;BME280;17676;52.254;4.490;2023-04-02T08:58:15;102205.50;;;11.72;100.00
31005;BME280;17676;52.254;4.490;2023-04-02T09:00:46;102204.16;;;10.93;100.00
31005;BME280;17676;52.254;4.490;2023-04-02T09:03:18;102191.13;;;10.58;100.00
31005;BME280;17676;52.254;4.490;2023-04-02T09:05:46;102197.75;;;10.47;100.00
31005;BME280;17676;52.254;4.490;2023-04-02T09:08:19;102216.06;;;11.67;100.00
31005;BME280;17676;52.254;4.490;2023-04-02T09:14:04;102205.22;;;10.84;100.00
31005;BME280;17676;52.254;4.490;2023-04-02T09:17:20;102213.41;;;11.06;100.00
31005;BME280;17676;52.254;4.490;2023-04-02T09:23:00;102214.03;;;11.39;100.00
31005;BME280;17676;52.254;4.490;2023-04-02T09:28:42;102241.78;;;12.45;100.00
31005;BME280;17676;52.254;4.490;2023-04-02T09:33:47;102235.88;;;13.00;100.00
31005;BME280;17676;52.254;4.490;2023-04-02T09:36:31;102238.50;;;12.35;100.00
31005;BME280;17676;52.254;4.490;2023-04-02T09:39:16;102232.94;;;11.24;100.00
31005;BME280;17676;52.254;4.490;2023-04-02T09:41:46;102230.81;;;11.87;100.00
31005;BME280;17676;52.254;4.490;2023-04-02T09:49:16;102249.66;;;12.98;100.00
31005;BME280;17676;52.254;4.490;2023-04-02T09:51:43;102250.84;;;12.81;100.00
31005;BME280;17676;52.254;4.490;2023-04-02T09:54:18;102243.72;;;12.95;100.00
31005;BME280;17676;52.254;4.490;2023-04-02T09:57:20;102272.72;;;11.85;100.00
31005;BME280;17676;52.254;4.490;2023-04-02T10:00:22;102257.94;;;11.87;100.00
31005;BME280;17676;52.254;4.490;2023-04-02T10:03:03;102263.75;;;10.46;100.00
31005;BME280;17676;52.254;4.490;2023-04-02T10:05:37;102248.13;;;11.03;100.00
31005;BME280;17676;52.254;4.490;2023-04-02T10:08:25;102259.06;;;10.79;100.00
31005;BME280;17676;52.254;4.490;2023-04-02T10:14:15;102263.72;;;11.84;100.00
31005;BME280;17676;52.254;4.490;2023-04-02T10:16:48;102282.50;;;12.45;100.00
31005;BME280;17676;52.254;4.490;2023-04-02T10:19:35;102282.16;;;12.92;100.00
31005;BME280;17676;52.254;4.490;2023-04-02T10:22:15;102282.88;;;12.05;100.00
31005;BME280;17676;52.254;4.490;2023-04-02T10:24:44;102276.94;;;12.24;100.00
31005;BME280;17676;52.254;4.490;2023-04-02T10:27:33;102288.25;;;12.79;100.00
31005;BME280;17676;52.254;4.490;2023-04-02T10:30:23;102282.84;;;13.08;100.00
31005;BME280;17676;52.254;4.490;2023-04-02T10:33:13;102291.03;;;13.29;100.00
31005;BME280;17676;52.254;4.490;2023-04-02T10:38:38;102307.41;;;13.00;100.00
31005;BME280;17676;52.254;4.490;2023-04-02T10:46:37;102300.47;;;12.46;100.00
31005;BME280;17676;52.254;4.490;2023-04-02T10:55:22;102320.97;;;12.34;100.00
31005;BME280;17676;52.254;4.490;2023-04-02T10:57:55;102330.28;;;12.69;100.00
31005;BME280;17676;52.254;4.490;2023-04-02T11:00:27;102333.63;;;13.22;100.00
31005;BME280;17676;52.254;4.490;2023-04-02T11:05:52;102347.88;;;11.76;100.00
31005;BME280;17676;52.254;4.490;2023-04-02T11:08:26;102349.91;;;11.36;100.00
31005;BME280;17676;52.254;4.490;2023-04-02T11:11:00;102350.28;;;11.71;100.00
31005;BME280;17676;52.254;4.490;2023-04-02T11:13:42;102351.88;;;11.88;100.00
31005;BME280;17676;52.254;4.490;2023-04-02T11:16:11;102337.72;;;11.70;100.00
31005;BME280;17676;52.254;4.490;2023-04-02T11:18:41;102348.38;;;11.41;100.00
31005;BME280;17676;52.254;4.490;2023-04-02T11:21:37;102355.59;;;12.32;100.00
31005;BME280;17676;52.254;4.490;2023-04-02T11:24:05;102354.19;;;11.99;100.00
31005;BME280;17676;52.254;4.490;2023-04-02T11:26:47;102357.78;;;12.14;100.00
31005;BME280;17676;52.254;4.490;2023-04-02T11:29:20;102351.31;;;12.89;100.00
31005;BME280;17676;52.254;4.490;2023-04-02T11:31:47;102350.53;;;12.66;100.00
31005;BME280;17676;52.254;4.490;2023-04-02T11:37:11;102363.94;;;12.68;100.00
31005;BME280;17676;52.254;4.490;2023-04-02T11:39:58;102359.56;;;12.81;100.00
31005;BME280;17676;52.254;4.490;2023-04-02T11:42:31;102362.16;;;12.60;100.00
31005;BME280;17676;52.254;4.490;2023-04-02T11:45:47;102355.44;;;12.34;100.00
31005;BME280;17676;52.254;4.490;2023-04-02T11:50:42;102367.75;;;12.59;100.00
31005;BME280;17676;52.254;4.490;2023-04-02T11:55:42;102368.25;;;11.72;100.00
31005;BME280;17676;52.254;4.490;2023-04-02T11:58:28;102366.13;;;12.35;100.00
31005;BME280;17676;52.254;4.490;2023-04-02T12:04:09;102374.03;;;11.69;100.00
31005;BME280;17676;52.254;4.490;2023-04-02T12:09:28;102378.59;;;11.30;100.00
31005;BME280;17676;52.254;4.490;2023-04-02T12:12:26;102390.00;;;11.56;100.00
31005;BME280;17676;52.254;4.490;2023-04-02T12:14:55;102395.34;;;11.80;100.00
31005;BME280;17676;52.254;4.490;2023-04-02T12:17:37;102391.03;;;11.09;100.00
31005;BME280;17676;52.254;4.490;2023-04-02T12:22:38;102403.66;;;11.32;100.00
31005;BME280;17676;52.254;4.490;2023-04-02T12:25:17;102391.69;;;11.11;100.00
31005;BME280;17676;52.254;4.490;2023-04-02T12:30:34;102409.31;;;11.07;100.00
31005;BME280;17676;52.254;4.490;2023-04-02T12:35:47;102394.31;;;10.80;100.00
31005;BME280;17676;52.254;4.490;2023-04-02T12:38:24;102393.22;;;11.52;100.00
31005;BME280;17676;52.254;4.490;2023-04-02T12:40:53;102400.47;;;11.29;100.00
31005;BME280;17676;52.254;4.490;2023-04-02T12:43:42;102410.16;;;11.15;100.00
31005;BME280;17676;52.254;4.490;2023-04-02T12:46:08;102414.16;;;11.35;100.00
31005;BME280;17676;52.254;4.490;2023-04-02T12:48:38;102392.06;;;11.00;100.00
31005;BME280;17676;52.254;4.490;2023-04-02T12:51:03;102405.63;;;10.92;100.00
31005;BME280;17676;52.254;4.490;2023-04-02T12:53:33;102411.41;;;10.73;100.00
31005;BME280;17676;52.254;4.490;2023-04-02T12:56:01;102413.59;;;10.45;100.00
31005;BME280;17676;52.254;4.490;2023-04-02T12:58:36;102408.88;;;10.79;100.00
31005;BME280;17676;52.254;4.490;2023-04-02T13:01:33;102414.44;;;10.86;100.00
31005;BME280;17676;52.254;4.490;2023-04-02T13:04:06;102415.66;;;10.75;100.00
31005;BME280;17676;52.254;4.490;2023-04-02T13:06:33;102424.09;;;10.88;100.00
31005;BME280;17676;52.254;4.490;2023-04-02T13:09:01;102426.75;;;11.12;100.00
31005;BME280;17676;52.254;4.490;2023-04-02T13:11:38;102431.19;;;10.97;100.00
31005;BME280;17676;52.254;4.490;2023-04-02T13:14:07;102435.59;;;11.06;100.00
31005;BME280;17676;52.254;4.490;2023-04-02T13:16:37;102430.84;;;11.00;100.00
31005;BME280;17676;52.254;4.490;2023-04-02T13:19:20;102424.56;;;11.00;100.00
31005;BME280;17676;52.254;4.490;2023-04-02T13:21:47;102416.56;;;11.30;100.00
31005;BME280;17676;52.254;4.490;2023-04-02T13:24:17;102436.28;;;10.68;100.00
31005;BME280;17676;52.254;4.490;2023-04-02T13:26:42;102442.72;;;10.59;100.00
31005;BME280;17676;52.254;4.490;2023-04-02T13:31:34;102439.84;;;10.61;100.00
31005;BME280;17676;52.254;4.490;2023-04-02T13:34:00;102434.28;;;10.62;100.00
31005;BME280;17676;52.254;4.490;2023-04-02T13:36:26;102443.91;;;10.73;100.00
31005;BME280;17676;52.254;4.490;2023-04-02T13:38:54;102442.41;;;10.78;100.00
31005;BME280;17676;52.254;4.490;2023-04-02T13:41:20;102447.78;;;10.94;100.00
31005;BME280;17676;52.254;4.490;2023-04-02T13:43:49;102442.03;;;10.57;100.00
31005;BME280;17676;52.254;4.490;2023-04-02T13:46:20;102436.97;;;10.86;100.00
31005;BME280;17676;52.254;4.490;2023-04-02T13:48:47;102441.69;;;11.00;100.00
31005;BME280;17676;52.254;4.490;2023-04-02T13:51:16;102444.38;;;11.08;100.00
31005;BME280;17676;52.254;4.490;2023-04-02T13:53:42;102439.66;;;11.02;100.00
31005;BME280;17676;52.254;4.490;2023-04-02T13:56:09;102436.25;;;11.00;100.00
31005;BME280;17676;52.254;4.490;2023-04-02T13:58:35;102453.88;;;10.88;100.00
31005;BME280;17676;52.254;4.490;2023-04-02T14:01:00;102447.97;;;10.85;100.00
31005;BME280;17676;52.254;4.490;2023-04-02T14:03:26;102448.63;;;10.79;100.00
31005;BME280;17676;52.254;4.490;2023-04-02T14:11:49;102456.91;;;10.93;100.00
31005;BME280;17676;52.254;4.490;2023-04-02T14:14:28;102454.56;;;10.98;100.00
31005;BME280;17676;52.254;4.490;2023-04-02T14:17:24;102456.53;;;11.28;100.00
31005;BME280;17676;52.254;4.490;2023-04-02T14:28:19;102468.78;;;10.84;100.00
31005;BME280;17676;52.254;4.490;2023-04-02T14:31:13;102466.78;;;10.78;100.00
31005;BME280;17676;52.254;4.490;2023-04-02T14:39:49;102473.53;;;10.90;100.00
31005;BME280;17676;52.254;4.490;2023-04-02T14:42:25;102474.19;;;11.00;100.00
31005;BME280;17676;52.254;4.490;2023-04-02T14:45:28;102477.22;;;11.13;100.00
31005;BME280;17676;52.254;4.490;2023-04-02T14:48:25;102486.06;;;10.75;100.00
31005;BME280;17676;52.254;4.490;2023-04-02T14:51:04;102491.63;;;10.66;100.00
31005;BME280;17676;52.254;4.490;2023-04-02T14:54:01;102505.50;;;10.87;100.00
31005;BME280;17676;52.254;4.490;2023-04-02T14:59:24;102501.97;;;11.10;100.00
31005;BME280;17676;52.254;4.490;2023-04-02T15:01:59;102498.22;;;11.27;100.00
31005;BME280;17676;52.254;4.490;2023-04-02T15:04:31;102502.63;;;11.20;100.00
31005;BME280;17676;52.254;4.490;2023-04-02T15:07:25;102498.06;;;11.13;100.00
31005;BME280;17676;52.254;4.490;2023-04-02T15:10:06;102494.19;;;10.99;100.00
31005;BME280;17676;52.254;4.490;2023-04-02T15:12:36;102491.78;;;11.04;100.00
31005;BME280;17676;52.254;4.490;2023-04-02T15:17:33;102508.06;;;10.96;100.00
31005;BME280;17676;52.254;4.490;2023-04-02T15:20:17;102517.03;;;10.97;100.00
31005;BME280;17676;52.254;4.490;2023-04-02T15:23:09;102495.84;;;11.16;100.00
31005;BME280;17676;52.254;4.490;2023-04-02T15:25:46;102513.31;;;11.14;100.00
31005;BME280;17676;52.254;4.490;2023-04-02T15:28:25;102516.19;;;11.12;100.00
31005;BME280;17676;52.254;4.490;2023-04-02T15:30:58;102515.66;;;11.25;100.00
31005;BME280;17676;52.254;4.490;2023-04-02T15:39:27;102520.41;;;10.99;100.00
31005;BME280;17676;52.254;4.490;2023-04-02T15:45:22;102507.38;;;11.10;100.00
31005;BME280;17676;52.254;4.490;2023-04-02T15:47:59;102511.44;;;11.22;100.00
31005;BME280;17676;52.254;4.490;2023-04-02T15:56:06;102514.63;;;11.26;100.00
31005;BME280;17676;52.254;4.490;2023-04-02T16:09:51;102534.63;;;11.33;100.00
31005;BME280;17676;52.254;4.490;2023-04-02T16:12:16;102530.03;;;11.33;100.00
31005;BME280;17676;52.254;4.490;2023-04-02T16:14:45;102536.50;;;11.24;100.00
31005;BME280;17676;52.254;4.490;2023-04-02T16:17:33;102545.31;;;11.10;100.00
31005;BME280;17676;52.254;4.490;2023-04-02T16:20:23;102548.03;;;11.02;100.00
31005;BME280;17676;52.254;4.490;2023-04-02T16:23:12;102553.44;;;11.02;100.00
31005;BME280;17676;52.254;4.490;2023-04-02T16:25:44;102550.38;;;11.05;100.00
31005;BME280;17676;52.254;4.490;2023-04-02T16:28:20;102550.56;;;10.72;100.00
31005;BME280;17676;52.254;4.490;2023-04-02T16:31:10;102547.50;;;10.99;100.00
31005;BME280;17676;52.254;4.490;2023-04-02T16:36:57;102554.06;;;10.64;100.00
31005;BME280;17676;52.254;4.490;2023-04-02T16:47:49;102558.47;;;10.57;100.00
31005;BME280;17676;52.254;4.490;2023-04-02T16:50:35;102577.97;;;10.69;100.00
31005;BME280;17676;52.254;4.490;2023-04-02T16:53:32;102576.44;;;10.66;100.00